Tuesday, November 13, 2018, 6:28 PM CST
Back to Local

KDPA, Chicago/west Ch Dupage

Location: West Chicago, IL, United States Lat: 41.9
Local Time: 6:28 PM CST ( 0:28 GMT) Lon: -88.25
Time Zone: US/Central Elev: 757 ft

Show me the last for .
Show Coded

Time T Td Feel RH Dir Speed Gust Alt SLP Vis Weather Sky Remarks
2018-11-13 17:52 22 11 13 62 280° 7 - 30.43 30.46 10 CLR 6-hr Min Temp (6pm): 21.0°F
6-hr Max Temp (6pm): 28.0°F
2018-11-13 16:52 24 10 15 54 270° 8 - 30.42 30.46 10 CLR None
2018-11-13 15:52 26 9 18 47 280° 8 - 30.42 30.45 10 CLR None
2018-11-13 14:52 27 9 17 45 330° 12 - 30.40 30.44 10 CLR None
2018-11-13 13:52 28 10 17 46 300° 14 - 30.40 30.43 10 CLR None
2018-11-13 12:52 26 10 17 50 300° 9 - 30.41 30.44 10 CLR None
2018-11-13 11:52 26 9 16 47 330° 10 - 30.43 30.46 10 CLR 6-hr Min Temp (12pm): 17.1°F
6-hr Max Temp (12pm): 26.1°F
2018-11-13 10:52 24 9 13 51 310° 12 - 30.43 30.47 10 CLR None
2018-11-13 09:52 23 8 10 52 310° 16 - 30.42 30.46 10 CLR None
2018-11-13 08:52 21 8 7 56 310° 16 - 30.41 30.44 10 CLR None
2018-11-13 07:52 19 8 6 61 320° 13 - 30.40 30.43 10 CLR None
2018-11-13 06:52 17 8 6 67 320° 9 - 30.38 30.42 10 CLR None
2018-11-13 05:52 18 8 5 64 330° 12 - 30.37 30.40 10 CLR 6-hr Min Temp (6am): 18.0°F
6-hr Max Temp (6am): 24.1°F
2018-11-13 04:52 18 9 1 67 330° 14 22 30.36 30.39 10 CLR None
2018-11-13 03:52 19 9 2 64 320° 14 22 30.35 30.38 10 CLR None
2018-11-13 03:19 20 9 7 61 330° 13 - 30.35 - 10 SCT029 None
2018-11-13 02:52 21 10 9 61 340° 13 - 30.34 30.37 10 OVC027 None
2018-11-13 01:52 23 12 8 62 330° 10 22 30.34 30.37 10 OVC027 None
2018-11-13 00:52 24 13 12 61 340° 13 - 30.34 30.37 10 OVC027 None
2018-11-13 00:11 24 13 12 61 330° 14 - 30.34 - 10 OVC029 None
2018-11-12 23:52 23 13 12 64 330° 10 - 30.35 30.37 10 BKN030 6-hr Min Temp (12am): 23.0°F
6-hr Max Temp (12am): 28.0°F
24-hr Min Temp (12am): 23.0°F
24-hr Max Temp (12am): 33.1°F
2018-11-12 22:52 24 13 14 61 320° 10 - 30.35 30.38 10 BKN030 None
2018-11-12 22:18 24 13 14 61 340° 9 - 30.35 - 10 SCT030 None
2018-11-12 21:52 25 14 14 62 350° 12 - 30.36 30.39 10 OVC028 None
2018-11-12 20:52 26 16 17 65 330° 9 - 30.34 30.37 9 OVC026 None
2018-11-12 19:52 27 17 14 65 340° 12 20 30.33 30.36 9 BKN027 OVC120 None

Support USWX by starting your Amazon purchase here.